Data for 07/14/2018

Time Sea-Level Adjusted Pressure Absolute Pressure Temperature Relative Humidity Dew Point   
(mb) (inHg) (mb) (inHg) (C) (F) (%) (C) (F)
00:05 1021 30.15 850 25.1 19.9 67.7 46 7.9 46.2
00:10 1021 30.15 850 25.1 19.7 67.5 43 7.1 44.7
00:15 1021 30.15 850 25.1 19.8 67.6 42 6.5 43.7
00:20 1021 30.15 850 25.1 19.7 67.5 41 6.2 43.2
00:25 1021 30.15 850 25.1 19.5 67.1 42 6.3 43.4
00:30 1021 30.15 850 25.1 19.3 66.7 43 6.6 43.9
00:35 1021 30.15 850 25.1 18.8 65.9 46 7.1 44.8
00:40 1021 30.15 850 25.1 18.5 65.4 46 6.9 44.5
00:45 1021 30.15 850 25.1 18.7 65.6 44 6.2 43.2
00:50 1021 30.15 850 25.1 18.7 65.6 43 6 42.9
00:55 1021 30.15 850 25.1 18.7 65.7 43 5.9 42.5
01:00 1021 30.15 850 25.1 18.7 65.7 43 6.1 42.9
01:05 1021 30.15 850 25.1 18.6 65.5 44 6.3 43.4
01:10 1021 30.15 850 25.1 18.2 64.8 45 6.2 43.2
01:15 1021 30.15 850 25.1 17.9 64.3 43 5.4 41.7
01:20 1021 30.15 850 25.1 18.2 64.8 43 5.4 41.7
01:25 1021 30.15 850 25.1 18.4 65.1 42 5.5 41.9
01:30 1021 30.15 850 25.1 18.4 65 41 4.9 40.8
01:35 1021 30.15 850 25.1 18.5 65.3 40 4.8 40.6
01:40 1021 30.15 850 25.1 18.4 65.2 42 5.5 41.8
01:45 1021 30.15 850 25.1 18.1 64.6 41 4.8 40.6
01:50 1021 30.15 850 25.1 18.5 65.3 40 4.9 40.8
01:55 1021 30.15 850 25.1 18.6 65.4 41 5.2 41.3
02:00 1021 30.15 850 25.1 18.2 64.8 42 5.1 41.2
02:05 1021 30.15 850 25.1 18.1 64.6 40 4.4 40
02:10 1021 30.15 850 25.1 18.1 64.6 42 5 40.9
02:15 1021 30.15 850 25.1 17.7 63.9 44 5.4 41.6
02:20 1021 30.15 850 25.1 17.4 63.2 44 5.1 41.1
02:25 1021 30.15 850 25.1 17.4 63.3 43 4.7 40.5
02:30 1021 30.15 850 25.1 17.6 63.7 42 4.6 40.2
02:35 1021 30.15 850 25.1 17.7 63.9 41 4.3 39.8
02:40 1021 30.15 850 25.1 17.9 64.3 40 4.1 39.5
02:45 1021 30.15 850 25.1 18.1 64.6 41 4.7 40.5
02:50 1021 30.15 850 25.1 17.9 64.2 41 4.6 40.3
02:55 1021 30.15 850 25.1 17.8 64 42 4.7 40.5
03:00 1021 30.15 850 25.1 17.8 64 38 3.4 38.2
03:05 1021 30.15 850 25.1 18.5 65.3 38 4.1 39.4
03:10 1021 30.15 850 25.1 18.4 65.1 38 4 39.3
03:15 1021 30.15 850 25.1 18.2 64.8 39 4.2 39.6
03:20 1021 30.15 850 25.1 18 64.4 42 4.9 40.7
03:25 1021 30.15 850 25.1 17.2 63 45 5.5 41.9
03:30 1021 30.15 850 25.1 16.7 62.1 48 5.6 42.1
03:35 1021 30.15 850 25.1 16.6 61.9 46 5.1 41.1
03:40 1021 30.15 850 25.1 17.1 62.7 45 5 41.1
03:45 1021 30.15 850 25.1 17.1 62.8 44 4.9 40.8
03:50 1021 30.15 850 25.1 17.2 63 44 5 41
03:55 1021 30.15 850 25.1 17.2 63 43 4.7 40.4
04:00 1021 30.15 850 25.1 17.4 63.3 43 4.8 40.6
04:05 1021 30.15 850 25.1 17.3 63.1 45 5.2 41.4
04:10 1021 30.15 851 25.13 17.3 63.1 44 5.1 41.1
04:15 1021 30.15 851 25.13 17.1 62.8 46 5.5 42
04:20 1021 30.15 850 25.1 16.9 62.5 45 5 41.1
04:25 1021 30.15 850 25.1 16.9 62.5 45 5.1 41.1
04:30 1021 30.15 850 25.1 16.8 62.2 45 4.9 40.8
04:35 1021 30.15 850 25.1 16.9 62.5 42 4.1 39.4
04:40 1021 30.15 850 25.1 17.4 63.3 41 4.2 39.5
04:45 1021 30.15 850 25.1 17.3 63.1 43 4.9 40.8
04:50 1021 30.15 850 25.1 16.9 62.4 44 4.7 40.4
04:55 1021 30.15 851 25.13 16.9 62.4 44 4.7 40.4
05:00 1021 30.15 850 25.1 16.9 62.4 44 4.6 40.2
05:05 1021 30.15 850 25.1 16.7 62.1 44 4.7 40.4
05:10 1021 30.15 850 25.1 16.6 61.9 46 5 41
05:15 1021 30.15 851 25.13 16.4 61.5 45 4.6 40.3
05:20 1021 30.15 851 25.13 16.8 62.2 44 4.5 40.1
05:25 1021 30.15 851 25.13 16.7 62.1 45 4.7 40.5
05:30 1021 30.15 851 25.13 16.7 62 45 4.8 40.7
05:35 1021 30.15 851 25.13 16.6 61.9 45 4.7 40.5
05:40 1021 30.15 851 25.13 16.7 62 45 4.8 40.6
05:45 1022 30.18 851 25.13 16.6 61.9 45 4.6 40.2
05:50 1022 30.18 851 25.13 17 62.6 44 4.8 40.7
05:55 1022 30.18 851 25.13 16.8 62.3 46 5.3 41.5
06:00 1022 30.18 851 25.13 16.5 61.8 47 5.2 41.4
06:05 1022 30.18 851 25.13 16.3 61.3 47 4.9 40.8
06:10 1022 30.18 851 25.13 16 60.8 47 4.8 40.7
06:15 1022 30.18 851 25.13 15.9 60.6 47 4.5 40.2
06:20 1022 30.18 851 25.13 15.9 60.5 48 5 41
06:25 1022 30.18 851 25.13 15.8 60.5 47 4.6 40.2
06:30 1022 30.18 851 25.13 16.1 61.1 48 5.1 41.2
06:35 1022 30.18 851 25.13 16 60.7 47 4.9 40.7
06:40 1022 30.18 851 25.13 16.2 61.1 47 5 41
06:45 1022 30.18 851 25.13 16.3 61.3 47 5 41
06:50 1022 30.18 851 25.13 16.6 61.8 44 4.5 40.1
06:55 1022 30.18 851 25.13 16.9 62.4 45 5 40.9
07:00 1022 30.18 851 25.13 16.8 62.2 46 5.2 41.3
07:05 1022 30.18 851 25.13 16.6 61.8 48 5.5 41.9
07:10 1022 30.18 851 25.13 16.4 61.5 47 5.2 41.4
07:15 1022 30.18 852 25.16 16.6 61.9 46 5.1 41.2
07:20 1022 30.18 852 25.16 16.7 62.1 48 5.7 42.3
07:25 1022 30.18 852 25.16 16.8 62.2 48 5.9 42.7
07:30 1022 30.18 852 25.16 16.8 62.2 49 6.1 43
07:35 1022 30.18 852 25.16 16.7 62.1 50 6.4 43.4
07:40 1022 30.18 852 25.16 16.9 62.5 50 6.7 44
07:45 1022 30.18 852 25.16 17 62.6 51 7 44.5
07:50 1022 30.18 852 25.16 17 62.6 50 6.6 43.8
07:55 1022 30.18 852 25.16 17.5 63.6 50 7 44.6
08:00 1022 30.18 852 25.16 18.3 64.9 47 6.9 44.4
08:05 1022 30.18 852 25.16 18.9 66.1 43 6.1 43
08:10 1023 30.21 852 25.16 19.5 67.1 43 6.7 44.1
08:15 1023 30.21 852 25.16 19.8 67.6 43 7 44.6
08:20 1023 30.21 852 25.16 19.9 67.8 45 7.6 45.7
08:25 1023 30.21 852 25.16 20.2 68.3 45 7.9 46.2
08:30 1023 30.21 852 25.16 20.9 69.6 39 6.6 43.9
08:35 1023 30.21 852 25.16 21.5 70.7 39 7.2 45
08:40 1023 30.21 852 25.16 21.8 71.3 39 7.4 45.3
08:45 1023 30.21 852 25.16 22.3 72.1 36 6.8 44.2
08:50 1023 30.21 852 25.16 22.8 73 36 7.1 44.7
08:55 1023 30.21 852 25.16 22.4 72.3 37 7.3 45.2
09:00 1023 30.21 852 25.16 22.6 72.7 37 7.4 45.3
09:05 1023 30.21 852 25.16 23.5 74.2 34 6.8 44.3
09:10 1023 30.21 852 25.16 23.5 74.4 36 7.8 46
09:15 1023 30.21 852 25.16 22.9 73.3 37 7.5 45.6
09:20 1023 30.21 852 25.16 23.6 74.5 30 5.4 41.8
09:25 1023 30.21 852 25.16 24.3 75.7 32 6.9 44.4
09:30 1023 30.21 852 25.16 24.1 75.4 33 7 44.7
09:35 1023 30.21 852 25.16 23.8 74.8 33 6.8 44.3
09:40 1023 30.21 852 25.16 23.5 74.3 33 6.4 43.5
09:45 1023 30.21 852 25.16 24.1 75.5 29 5.1 41.2
09:50 1023 30.21 852 25.16 23.7 74.7 29 5.1 41.2
09:55 1023 30.21 852 25.16 24 75.1 31 6.2 43.2
10:00 1023 30.21 852 25.16 24.4 76 30 5.9 42.6
10:05 1023 30.21 852 25.16 24.9 76.8 29 6.1 42.9
10:10 1023 30.21 852 25.16 25.4 77.7 29 6.2 43.1
10:15 1023 30.21 852 25.16 25.3 77.5 29 6.1 42.9
10:20 1023 30.21 852 25.16 26 78.8 27 6 42.8
10:25 1023 30.21 852 25.16 26.7 80 26 5.9 42.6
10:30 1023 30.21 852 25.16 27.3 81.2 26 6.6 43.9
10:35 1023 30.21 852 25.16 27.5 81.5 26 6.5 43.7
10:40 1023 30.21 852 25.16 26.8 80.3 26 6.2 43.2
10:45 1023 30.21 852 25.16 27.2 80.9 25 5.9 42.6
10:50 1023 30.21 852 25.16 27.7 81.9 23 5 40.9
10:55 1023 30.21 852 25.16 28 82.5 24 5.6 42.1
11:00 1023 30.21 852 25.16 28 82.5 24 5.7 42.2
11:05 1023 30.21 852 25.16 28.2 82.8 23 5.5 41.8
11:10 1023 30.21 852 25.16 29.5 85.1 21 5.1 41.2
11:15 1023 30.21 852 25.16 29.6 85.3 22 5.8 42.4
11:20 1023 30.21 852 25.16 29.7 85.4 22 6.3 43.3
11:25 1023 30.21 852 25.16 29.1 84.4 23 6.2 43.2
11:30 1023 30.21 852 25.16 29.2 84.6 23 6.4 43.5
11:35 1023 30.21 852 25.16 30 85.9 23 7.2 44.9
11:40 1023 30.21 852 25.16 29.4 84.9 23 6.6 43.8
11:45 1022 30.18 852 25.16 29.6 85.3 23 6.3 43.4
11:50 1022 30.18 852 25.16 29.4 84.8 21 5 41
11:55 1023 30.21 852 25.16 29.3 84.7 21 5 41
12:00 1023 30.21 852 25.16 28.4 83.2 20 3.8 38.8
12:05 1023 30.21 852 25.16 27.4 81.4 24 5.2 41.3
12:10 1023 30.21 852 25.16 28 82.4 24 5.9 42.6
12:15 1023 30.21 852 25.16 28.8 83.8 21 4.4 39.9
12:20 1023 30.21 852 25.16 28.4 83 23 5.9 42.6
12:25 1023 30.21 852 25.16 28.7 83.6 22 5.2 41.3
12:30 1023 30.21 852 25.16 29 84.1 20 4.2 39.5
12:35 1023 30.21 852 25.16 28.7 83.7 20 3.7 38.7
12:40 1023 30.21 852 25.16 29.3 84.8 18 2.7 36.9
12:45 1022 30.18 852 25.16 28.7 83.6 15 0.1 32.2
12:50 1022 30.18 852 25.16 28.6 83.6 18 2.3 36.1
12:55 1022 30.18 852 25.16 28.8 83.8 17 1.6 34.9
13:00 1022 30.18 852 25.16 29.8 85.7 18 3.5 38.2
13:05 1022 30.18 852 25.16 29.7 85.5 16 1.4 34.5
13:10 1022 30.18 852 25.16 28.9 84 20 3.8 38.9
13:15 1022 30.18 852 25.16 29.2 84.6 18 2.6 36.8
13:20 1022 30.18 851 25.13 28.7 83.6 19 3.2 37.7
13:25 1022 30.18 851 25.13 29 84.1 18 2.2 36
13:30 1022 30.18 851 25.13 28.7 83.7 18 2 35.7
13:35 1022 30.18 851 25.13 28.5 83.3 17 1.1 33.9
13:40 1022 30.18 851 25.13 28.7 83.6 15 -0.6 30.9
13:45 1022 30.18 851 25.13 29.8 85.7 14 -0.6 31
13:50 1022 30.18 851 25.13 30 85.9 14 -0.1 31.8
13:55 1022 30.18 851 25.13 30.2 86.3 14 0.6 33
14:00 1022 30.18 851 25.13 30.4 86.7 13 -0.8 30.6
14:05 1022 30.18 851 25.13 30.2 86.3 13 -1.4 29.5
14:10 1022 30.18 851 25.13 29.2 84.5 13 -1.7 28.9
14:15 1022 30.18 851 25.13 28.7 83.7 14 -0.8 30.5
14:20 1022 30.18 851 25.13 28.9 84 15 -0.4 31.3
14:25 1022 30.18 851 25.13 29.4 84.8 14 -0.8 30.5
14:30 1022 30.18 851 25.13 29.9 85.9 15 0.4 32.7
14:35 1022 30.18 851 25.13 30.3 86.5 14 0.4 32.7
14:40 1022 30.18 851 25.13 29.3 84.7 14 -0.3 31.5
14:45 1022 30.18 851 25.13 28.9 84 15 -0.4 31.4
14:50 1022 30.18 851 25.13 29.9 85.9 14 -0.2 31.7
14:55 1022 30.18 851 25.13 30.9 87.6 14 0.3 32.5
15:00 1022 30.18 851 25.13 31.3 88.3 13 0.4 32.7
15:05 1022 30.18 851 25.13 30.5 86.8 14 0.6 33.1
15:10 1022 30.18 851 25.13 30.4 86.7 14 0 32
15:15 1022 30.18 851 25.13 29.8 85.7 14 0 32.1
15:20 1022 30.18 851 25.13 30.1 86.2 13 -1.1 30
15:25 1022 30.18 851 25.13 30 85.9 12 -1.9 28.5
15:30 1022 30.18 851 25.13 29.7 85.5 13 -1.6 29.1
15:35 1022 30.18 851 25.13 30.3 86.5 12 -2.3 27.9
15:40 1022 30.18 851 25.13 29.9 85.8 12 -1.8 28.7
15:45 1022 30.18 851 25.13 30.3 86.5 12 -2.3 27.8
15:50 1022 30.18 851 25.13 30 86.1 13 -1.2 29.9
15:55 1022 30.18 851 25.13 29.8 85.7 15 0.9 33.6
16:00 1022 30.18 851 25.13 30.9 87.6 13 -0.8 30.6
16:05 1022 30.18 851 25.13 31.2 88.1 13 -0.7 30.8
16:10 1021 30.15 851 25.13 30.6 87 13 -0.8 30.5
16:15 1021 30.15 851 25.13 31.4 88.5 12 -0.7 30.7
16:20 1021 30.15 851 25.13 31.7 89 12 -0.8 30.6
16:25 1021 30.15 851 25.13 30.6 87.1 13 -0.4 31.2
16:30 1021 30.15 851 25.13 30.6 87 14 0.7 33.2
16:35 1021 30.15 851 25.13 31.2 88.2 13 -0.5 31.1
16:40 1021 30.15 850 25.1 30.6 87 14 -0 32
16:45 1021 30.15 850 25.1 30.2 86.3 14 0.2 32.3
16:50 1021 30.15 851 25.13 30.5 86.8 14 0.1 32.2
16:55 1021 30.15 851 25.13 30.6 87.1 13 -0.6 31
17:00 1021 30.15 850 25.1 31.6 88.9 12 -0.4 31.2
17:05 1021 30.15 850 25.1 32.1 89.7 12 0 32
17:10 1021 30.15 850 25.1 32.3 90.1 12 0.2 32.3
17:15 1021 30.15 850 25.1 31 87.9 14 1 33.8
17:20 1021 30.15 850 25.1 30.2 86.4 14 0.4 32.8
17:25 1021 30.15 850 25.1 30.4 86.7 14 0.5 32.9
17:30 1021 30.15 850 25.1 31.1 88 14 0.8 33.5
17:35 1021 30.15 850 25.1 31.1 87.9 14 0.9 33.6
17:40 1021 30.15 850 25.1 30.8 87.5 14 0.7 33.3
17:45 1021 30.15 850 25.1 30.7 87.3 25 9 48.1
17:50 1021 30.15 850 25.1 28.5 83.3 32 10.5 51
17:55 1021 30.15 850 25.1 27.6 81.7 33 10.1 50.2
18:00 1021 30.15 850 25.1 26.9 80.4 34 10.2 50.3
18:05 1021 30.15 851 25.13 26.7 80.1 36 10.6 51.2
18:10 1021 30.15 850 25.1 26.5 79.6 33 9.2 48.6
18:15 1021 30.15 851 25.13 26 78.7 35 9.6 49.2
18:20 1021 30.15 851 25.13 25.4 77.8 38 10.2 50.3
18:25 1021 30.15 851 25.13 25.3 77.5 38 10.3 50.6
18:30 1021 30.15 851 25.13 25.3 77.5 39 10.7 51.3
18:35 1021 30.15 851 25.13 25.2 77.4 38 10 50
18:40 1021 30.15 851 25.13 25.1 77.2 37 9.6 49.3
18:45 1021 30.15 851 25.13 25 77.1 37 9.5 49.1
18:50 1021 30.15 851 25.13 25 76.9 37 9.7 49.4
18:55 1021 30.15 851 25.13 24.7 76.4 39 10.1 50.2
19:00 1021 30.15 851 25.13 24.4 75.9 41 10.4 50.7
19:05 1021 30.15 851 25.13 24.2 75.6 41 10.5 50.9
19:10 1022 30.18 851 25.13 23.8 74.9 43 10.7 51.2
19:15 1022 30.18 851 25.13 23.6 74.4 44 10.7 51.3
19:20 1022 30.18 851 25.13 23.5 74.4 44 10.8 51.5
19:25 1022 30.18 851 25.13 23.4 74.1 46 11.1 52.1
19:30 1022 30.18 851 25.13 23.1 73.5 46 11.1 52.1
19:35 1022 30.18 851 25.13 22.9 73.1 47 11.2 52.2
19:40 1022 30.18 851 25.13 22.6 72.7 48 11.3 52.4
19:45 1022 30.18 851 25.13 22.4 72.3 49 11.4 52.5
19:50 1022 30.18 851 25.13 22.2 71.9 50 11.3 52.4
19:55 1022 30.18 851 25.13 22 71.5 51 11.5 52.6
20:00 1022 30.18 851 25.13 21.8 71.2 51 11.5 52.6
20:05 1022 30.18 851 25.13 21.5 70.8 52 11.4 52.6
20:10 1022 30.18 851 25.13 21.3 70.4 52 11.3 52.4
20:15 1022 30.18 852 25.16 21.1 70 53 11.4 52.5
20:20 1022 30.18 852 25.16 20.9 69.6 54 11.3 52.4
20:25 1023 30.21 852 25.16 20.7 69.2 54 11.3 52.3
20:30 1023 30.21 852 25.16 20.5 68.9 55 11.3 52.3
20:35 1023 30.21 852 25.16 20.3 68.6 56 11.3 52.3
20:40 1023 30.21 852 25.16 20.2 68.3 56 11.3 52.3
20:45 1023 30.21 852 25.16 20 68 56 11.1 52.1
20:50 1023 30.21 852 25.16 19.9 67.8 57 11.2 52.1
20:55 1023 30.21 852 25.16 19.8 67.6 57 11.2 52.2
21:00 1023 30.21 852 25.16 19.6 67.3 58 11.2 52.2
21:05 1023 30.21 852 25.16 19.5 67.2 58 11.2 52.1
21:10 1023 30.21 853 25.19 19.4 66.9 59 11.2 52.1
21:15 1023 30.21 853 25.19 19.3 66.7 59 11.1 52
21:20 1024 30.24 853 25.19 19.2 66.5 59 11.1 52
21:25 1024 30.24 853 25.19 19.1 66.3 59 11.1 51.9
21:30 1024 30.24 853 25.19 18.9 66.1 60 11.1 51.9
21:35 1024 30.24 853 25.19 18.8 65.8 60 11 51.9
21:40 1024 30.24 853 25.19 18.7 65.6 60 10.9 51.7
21:45 1024 30.24 853 25.19 18.5 65.3 60 10.8 51.4
21:50 1024 30.24 853 25.19 18.4 65.2 61 10.7 51.3
21:55 1024 30.24 853 25.19 18.3 64.9 61 10.6 51.1
22:00 1024 30.24 854 25.22 18.2 64.7 61 10.6 51.2
22:05 1024 30.24 854 25.22 18.1 64.5 61 10.5 51
22:10 1025 30.27 854 25.22 17.9 64.3 62 10.6 51.1
22:15 1025 30.27 854 25.22 17.8 64.1 62 10.4 50.8
22:20 1025 30.27 854 25.22 17.7 63.9 62 10.4 50.7
22:25 1025 30.27 854 25.22 17.6 63.6 62 10.4 50.7
22:30 1025 30.27 854 25.22 17.4 63.3 63 10.3 50.6
22:35 1025 30.27 854 25.22 17.3 63.1 63 10.3 50.5
22:40 1025 30.27 854 25.22 17.1 62.8 64 10.2 50.4
22:45 1025 30.27 854 25.22 17 62.6 64 10.2 50.3
22:50 1025 30.27 854 25.22 16.8 62.2 64 10.1 50.2
22:55 1025 30.27 854 25.22 16.7 62 64 10 50.1
23:00 1025 30.27 854 25.22 16.6 61.8 65 9.9 49.9
23:05 1025 30.27 854 25.22 16.4 61.6 65 9.9 49.9
23:10 1025 30.27 854 25.22 16.3 61.4 65 9.9 49.8
23:15 1025 30.27 854 25.22 16.2 61.1 66 9.8 49.6
23:20 1025 30.27 854 25.22 16.1 61 66 9.7 49.5
23:25 1025 30.27 854 25.22 16 60.8 66 9.7 49.4
23:30 1025 30.27 854 25.22 16 60.7 66 9.7 49.4
23:35 1025 30.27 854 25.22 15.9 60.5 66 9.6 49.3
23:40 1025 30.27 855 25.25 15.7 60.3 67 9.6 49.3
23:45 1025 30.27 855 25.25 15.6 60 67 9.5 49.2
23:50 1025 30.27 855 25.25 15.4 59.8 67 9.4 49
23:55 1025 30.27 855 25.25 15.4 59.7 67 9.4 48.9
24:00 1026 30.3 855 25.25 15.3 59.6 67 9.4 48.9